sensor_id;sensor_type;location;lat;lon;timestamp;P1;durP1;ratioP1;P2;durP2;ratioP2
39740;SDS011;25426;53.478;10.190;2022-12-29T09:48:14;3.45;;;1.50;;
39740;SDS011;25426;53.478;10.190;2022-12-29T09:50:52;4.80;;;1.65;;
39740;SDS011;25426;53.478;10.190;2022-12-29T09:53:30;5.07;;;1.42;;
39740;SDS011;25426;53.478;10.190;2022-12-29T09:56:16;3.13;;;1.20;;
39740;SDS011;25426;53.478;10.190;2022-12-29T09:58:57;4.57;;;1.38;;
39740;SDS011;25426;53.478;10.190;2022-12-29T10:02:04;3.03;;;1.48;;
39740;SDS011;25426;53.478;10.190;2022-12-29T10:04:57;2.38;;;1.25;;
39740;SDS011;25426;53.478;10.190;2022-12-29T10:07:35;5.07;;;1.60;;
39740;SDS011;25426;53.478;10.190;2022-12-29T10:10:28;5.80;;;1.92;;
39740;SDS011;25426;53.478;10.190;2022-12-29T10:16:10;5.55;;;1.65;;
39740;SDS011;25426;53.478;10.190;2022-12-29T10:22:19;2.75;;;1.17;;
39740;SDS011;25426;53.478;10.190;2022-12-29T10:25:49;6.13;;;1.63;;
39740;SDS011;25426;53.478;10.190;2022-12-29T10:28:44;6.47;;;2.05;;
39740;SDS011;25426;53.478;10.190;2022-12-29T10:31:38;3.20;;;1.40;;
39740;SDS011;25426;53.478;10.190;2022-12-29T10:43:29;5.30;;;1.63;;
39740;SDS011;25426;53.478;10.190;2022-12-29T10:46:23;11.23;;;2.30;;
39740;SDS011;25426;53.478;10.190;2022-12-29T10:49:02;5.13;;;1.67;;
39740;SDS011;25426;53.478;10.190;2022-12-29T10:51:39;4.68;;;1.92;;
39740;SDS011;25426;53.478;10.190;2022-12-29T10:54:24;5.10;;;1.40;;
39740;SDS011;25426;53.478;10.190;2022-12-29T11:00:17;4.03;;;1.40;;
39740;SDS011;25426;53.478;10.190;2022-12-29T11:06:22;4.03;;;1.83;;
39740;SDS011;25426;53.478;10.190;2022-12-29T11:09:08;5.82;;;2.08;;
39740;SDS011;25426;53.478;10.190;2022-12-29T11:11:46;8.13;;;1.70;;
39740;SDS011;25426;53.478;10.190;2022-12-29T11:14:18;2.63;;;1.38;;
39740;SDS011;25426;53.478;10.190;2022-12-29T11:17:00;3.20;;;1.35;;
39740;SDS011;25426;53.478;10.190;2022-12-29T11:19:33;5.57;;;1.33;;
39740;SDS011;25426;53.478;10.190;2022-12-29T11:22:24;2.78;;;1.15;;
39740;SDS011;25426;53.478;10.190;2022-12-29T11:25:05;3.85;;;1.50;;
39740;SDS011;25426;53.478;10.190;2022-12-29T11:27:47;4.95;;;1.10;;
39740;SDS011;25426;53.478;10.190;2022-12-29T11:30:44;4.85;;;1.20;;
39740;SDS011;25426;53.478;10.190;2022-12-29T11:33:15;5.20;;;1.27;;
39740;SDS011;25426;53.478;10.190;2022-12-29T11:35:47;2.60;;;1.23;;
39740;SDS011;25426;53.478;10.190;2022-12-29T11:38:20;2.35;;;1.20;;
39740;SDS011;25426;53.478;10.190;2022-12-29T11:40:53;3.53;;;1.38;;
39740;SDS011;25426;53.478;10.190;2022-12-29T11:43:31;5.43;;;1.70;;
39740;SDS011;25426;53.478;10.190;2022-12-29T11:46:07;4.60;;;1.30;;
39740;SDS011;25426;53.478;10.190;2022-12-29T11:48:57;4.55;;;1.17;;
39740;SDS011;25426;53.478;10.190;2022-12-29T11:51:32;3.78;;;1.35;;
39740;SDS011;25426;53.478;10.190;2022-12-29T11:54:16;3.45;;;1.13;;
39740;SDS011;25426;53.478;10.190;2022-12-29T11:56:56;2.17;;;0.90;;
39740;SDS011;25426;53.478;10.190;2022-12-29T12:05:14;5.57;;;1.55;;
39740;SDS011;25426;53.478;10.190;2022-12-29T12:08:00;4.63;;;2.30;;
39740;SDS011;25426;53.478;10.190;2022-12-29T12:11:14;4.82;;;1.58;;
39740;SDS011;25426;53.478;10.190;2022-12-29T12:14:02;3.13;;;1.50;;
39740;SDS011;25426;53.478;10.190;2022-12-29T12:17:14;3.92;;;1.63;;
39740;SDS011;25426;53.478;10.190;2022-12-29T12:20:14;5.88;;;2.10;;
39740;SDS011;25426;53.478;10.190;2022-12-29T12:26:12;5.47;;;1.90;;
39740;SDS011;25426;53.478;10.190;2022-12-29T12:28:59;4.30;;;1.90;;
39740;SDS011;25426;53.478;10.190;2022-12-29T12:32:01;6.53;;;1.40;;
39740;SDS011;25426;53.478;10.190;2022-12-29T12:34:44;4.65;;;1.65;;
39740;SDS011;25426;53.478;10.190;2022-12-29T12:40:33;6.50;;;1.95;;
39740;SDS011;25426;53.478;10.190;2022-12-29T12:43:40;7.47;;;2.17;;
39740;SDS011;25426;53.478;10.190;2022-12-29T12:46:48;4.70;;;2.15;;
39740;SDS011;25426;53.478;10.190;2022-12-29T12:56:15;6.10;;;2.28;;
39740;SDS011;25426;53.478;10.190;2022-12-29T13:02:27;2.65;;;1.60;;
39740;SDS011;25426;53.478;10.190;2022-12-29T13:08:45;5.97;;;1.70;;
39740;SDS011;25426;53.478;10.190;2022-12-29T13:18:22;5.25;;;1.60;;
39740;SDS011;25426;53.478;10.190;2022-12-29T13:21:49;3.97;;;1.48;;
39740;SDS011;25426;53.478;10.190;2022-12-29T13:30:58;3.88;;;1.23;;
39740;SDS011;25426;53.478;10.190;2022-12-29T13:34:14;5.20;;;2.10;;
39740;SDS011;25426;53.478;10.190;2022-12-29T13:37:09;7.80;;;1.83;;
39740;SDS011;25426;53.478;10.190;2022-12-29T13:39:52;2.28;;;1.42;;
39740;SDS011;25426;53.478;10.190;2022-12-29T13:42:29;3.45;;;1.38;;
39740;SDS011;25426;53.478;10.190;2022-12-29T13:45:09;4.78;;;1.40;;
39740;SDS011;25426;53.478;10.190;2022-12-29T13:47:59;10.05;;;1.90;;
39740;SDS011;25426;53.478;10.190;2022-12-29T13:50:51;2.10;;;1.63;;
39740;SDS011;25426;53.478;10.190;2022-12-29T13:53:36;7.95;;;1.67;;
39740;SDS011;25426;53.478;10.190;2022-12-29T13:56:40;5.35;;;1.73;;
39740;SDS011;25426;53.478;10.190;2022-12-29T14:02:42;4.63;;;1.77;;
39740;SDS011;25426;53.478;10.190;2022-12-29T14:09:01;6.05;;;1.80;;
39740;SDS011;25426;53.478;10.190;2022-12-29T14:11:36;6.00;;;1.95;;
39740;SDS011;25426;53.478;10.190;2022-12-29T14:14:28;3.45;;;1.45;;
39740;SDS011;25426;53.478;10.190;2022-12-29T14:17:10;8.32;;;2.00;;
39740;SDS011;25426;53.478;10.190;2022-12-29T14:19:43;8.70;;;1.80;;
39740;SDS011;25426;53.478;10.190;2022-12-29T14:22:15;3.25;;;1.80;;
39740;SDS011;25426;53.478;10.190;2022-12-29T14:24:55;6.03;;;2.40;;
39740;SDS011;25426;53.478;10.190;2022-12-29T14:30:00;6.07;;;3.55;;
39740;SDS011;25426;53.478;10.190;2022-12-29T14:35:36;8.60;;;4.53;;
39740;SDS011;25426;53.478;10.190;2022-12-29T14:38:20;5.35;;;2.30;;
39740;SDS011;25426;53.478;10.190;2022-12-29T14:44:11;6.50;;;2.03;;
39740;SDS011;25426;53.478;10.190;2022-12-29T14:49:30;7.40;;;3.60;;
39740;SDS011;25426;53.478;10.190;2022-12-29T14:52:04;7.53;;;3.20;;
39740;SDS011;25426;53.478;10.190;2022-12-29T14:54:54;4.38;;;1.90;;
39740;SDS011;25426;53.478;10.190;2022-12-29T14:57:37;6.00;;;1.90;;
39740;SDS011;25426;53.478;10.190;2022-12-29T15:00:18;3.75;;;2.53;;
39740;SDS011;25426;53.478;10.190;2022-12-29T15:05:55;5.20;;;1.80;;
39740;SDS011;25426;53.478;10.190;2022-12-29T15:08:49;4.38;;;2.00;;
39740;SDS011;25426;53.478;10.190;2022-12-29T15:11:30;4.55;;;2.20;;
39740;SDS011;25426;53.478;10.190;2022-12-29T15:14:27;6.72;;;3.17;;
39740;SDS011;25426;53.478;10.190;2022-12-29T15:17:01;7.85;;;5.47;;
39740;SDS011;25426;53.478;10.190;2022-12-29T15:19:58;7.80;;;3.75;;
39740;SDS011;25426;53.478;10.190;2022-12-29T15:22:44;10.60;;;5.47;;
39740;SDS011;25426;53.478;10.190;2022-12-29T15:25:23;9.15;;;3.72;;
39740;SDS011;25426;53.478;10.190;2022-12-29T15:28:00;12.32;;;5.35;;
39740;SDS011;25426;53.478;10.190;2022-12-29T15:30:36;13.70;;;6.07;;
39740;SDS011;25426;53.478;10.190;2022-12-29T15:33:36;13.90;;;5.32;;
39740;SDS011;25426;53.478;10.190;2022-12-29T15:36:11;13.50;;;5.82;;
39740;SDS011;25426;53.478;10.190;2022-12-29T15:38:49;13.48;;;5.30;;
39740;SDS011;25426;53.478;10.190;2022-12-29T15:41:35;9.68;;;4.75;;
39740;SDS011;25426;53.478;10.190;2022-12-29T15:44:37;8.65;;;3.85;;
39740;SDS011;25426;53.478;10.190;2022-12-29T15:47:17;7.20;;;3.70;;
39740;SDS011;25426;53.478;10.190;2022-12-29T15:50:36;24.05;;;19.80;;
39740;SDS011;25426;53.478;10.190;2022-12-29T15:53:02;20.95;;;9.55;;
39740;SDS011;25426;53.478;10.190;2022-12-29T15:55:34;13.35;;;5.63;;
39740;SDS011;25426;53.478;10.190;2022-12-29T15:58:24;21.17;;;8.38;;
39740;SDS011;25426;53.478;10.190;2022-12-29T16:01:03;9.57;;;5.97;;
39740;SDS011;25426;53.478;10.190;2022-12-29T16:03:34;17.33;;;7.93;;
39740;SDS011;25426;53.478;10.190;2022-12-29T16:06:21;9.05;;;3.88;;
39740;SDS011;25426;53.478;10.190;2022-12-29T16:09:16;11.45;;;5.85;;
39740;SDS011;25426;53.478;10.190;2022-12-29T16:12:15;26.58;;;12.93;;
39740;SDS011;25426;53.478;10.190;2022-12-29T16:17:30;12.18;;;5.45;;
39740;SDS011;25426;53.478;10.190;2022-12-29T16:20:15;9.77;;;3.78;;
39740;SDS011;25426;53.478;10.190;2022-12-29T16:23:01;7.93;;;3.95;;
39740;SDS011;25426;53.478;10.190;2022-12-29T16:25:33;12.10;;;5.88;;
39740;SDS011;25426;53.478;10.190;2022-12-29T16:31:16;9.98;;;4.00;;
39740;SDS011;25426;53.478;10.190;2022-12-29T16:34:28;11.15;;;8.27;;
39740;SDS011;25426;53.478;10.190;2022-12-29T16:42:49;11.93;;;3.75;;
39740;SDS011;25426;53.478;10.190;2022-12-29T16:50:37;6.55;;;2.92;;
39740;SDS011;25426;53.478;10.190;2022-12-29T16:55:57;5.53;;;2.92;;
39740;SDS011;25426;53.478;10.190;2022-12-29T16:59:07;8.20;;;3.58;;
39740;SDS011;25426;53.478;10.190;2022-12-29T17:02:07;8.25;;;3.60;;
39740;SDS011;25426;53.478;10.190;2022-12-29T17:04:46;5.68;;;3.60;;
39740;SDS011;25426;53.478;10.190;2022-12-29T17:07:20;11.48;;;3.95;;
39740;SDS011;25426;53.478;10.190;2022-12-29T17:09:57;6.18;;;3.97;;
39740;SDS011;25426;53.478;10.190;2022-12-29T17:12:28;6.05;;;3.88;;
39740;SDS011;25426;53.478;10.190;2022-12-29T17:15:07;9.65;;;3.53;;
39740;SDS011;25426;53.478;10.190;2022-12-29T17:17:55;7.40;;;3.85;;
39740;SDS011;25426;53.478;10.190;2022-12-29T17:20:27;6.38;;;3.08;;
39740;SDS011;25426;53.478;10.190;2022-12-29T17:23:00;8.20;;;5.70;;
39740;SDS011;25426;53.478;10.190;2022-12-29T17:25:36;19.10;;;9.50;;
39740;SDS011;25426;53.478;10.190;2022-12-29T17:28:18;28.40;;;22.33;;
39740;SDS011;25426;53.478;10.190;2022-12-29T17:30:53;10.57;;;4.45;;
39740;SDS011;25426;53.478;10.190;2022-12-29T17:33:37;6.35;;;3.72;;
39740;SDS011;25426;53.478;10.190;2022-12-29T17:36:08;7.97;;;4.38;;
39740;SDS011;25426;53.478;10.190;2022-12-29T17:38:41;7.75;;;3.67;;
39740;SDS011;25426;53.478;10.190;2022-12-29T17:41:13;7.07;;;3.80;;
39740;SDS011;25426;53.478;10.190;2022-12-29T17:43:44;5.18;;;3.50;;
39740;SDS011;25426;53.478;10.190;2022-12-29T17:46:15;7.85;;;3.30;;
39740;SDS011;25426;53.478;10.190;2022-12-29T17:48:46;9.75;;;3.58;;
39740;SDS011;25426;53.478;10.190;2022-12-29T17:51:17;7.15;;;2.90;;
39740;SDS011;25426;53.478;10.190;2022-12-29T17:53:50;6.30;;;3.15;;
39740;SDS011;25426;53.478;10.190;2022-12-29T17:56:21;8.20;;;3.03;;
39740;SDS011;25426;53.478;10.190;2022-12-29T17:58:52;8.48;;;4.13;;
39740;SDS011;25426;53.478;10.190;2022-12-29T18:01:27;9.52;;;3.35;;
39740;SDS011;25426;53.478;10.190;2022-12-29T18:04:00;9.25;;;4.15;;
39740;SDS011;25426;53.478;10.190;2022-12-29T18:06:31;6.38;;;2.70;;
39740;SDS011;25426;53.478;10.190;2022-12-29T18:09:02;9.13;;;3.67;;
39740;SDS011;25426;53.478;10.190;2022-12-29T18:11:33;11.10;;;4.68;;
39740;SDS011;25426;53.478;10.190;2022-12-29T18:14:11;7.32;;;3.75;;
39740;SDS011;25426;53.478;10.190;2022-12-29T18:16:46;11.02;;;4.57;;
39740;SDS011;25426;53.478;10.190;2022-12-29T18:19:17;9.52;;;5.07;;
39740;SDS011;25426;53.478;10.190;2022-12-29T18:21:48;10.95;;;6.22;;
39740;SDS011;25426;53.478;10.190;2022-12-29T18:24:19;8.20;;;5.22;;
39740;SDS011;25426;53.478;10.190;2022-12-29T18:26:50;16.77;;;5.68;;
39740;SDS011;25426;53.478;10.190;2022-12-29T18:29:21;8.85;;;4.60;;
39740;SDS011;25426;53.478;10.190;2022-12-29T18:31:51;9.27;;;4.43;;
39740;SDS011;25426;53.478;10.190;2022-12-29T18:34:22;12.93;;;5.13;;
39740;SDS011;25426;53.478;10.190;2022-12-29T18:36:53;7.30;;;4.72;;
39740;SDS011;25426;53.478;10.190;2022-12-29T18:39:24;9.48;;;4.00;;
39740;SDS011;25426;53.478;10.190;2022-12-29T18:41:55;11.02;;;5.25;;
39740;SDS011;25426;53.478;10.190;2022-12-29T18:44:26;10.55;;;5.65;;
39740;SDS011;25426;53.478;10.190;2022-12-29T18:46:58;16.17;;;8.10;;
39740;SDS011;25426;53.478;10.190;2022-12-29T18:49:30;10.50;;;5.05;;
39740;SDS011;25426;53.478;10.190;2022-12-29T18:52:01;10.75;;;5.03;;
39740;SDS011;25426;53.478;10.190;2022-12-29T18:54:32;11.40;;;5.90;;
39740;SDS011;25426;53.478;10.190;2022-12-29T18:57:03;18.75;;;8.07;;
39740;SDS011;25426;53.478;10.190;2022-12-29T18:59:34;11.77;;;5.22;;
39740;SDS011;25426;53.478;10.190;2022-12-29T19:02:05;8.27;;;4.00;;
39740;SDS011;25426;53.478;10.190;2022-12-29T19:04:46;8.77;;;4.72;;
39740;SDS011;25426;53.478;10.190;2022-12-29T19:07:17;11.07;;;4.40;;
39740;SDS011;25426;53.478;10.190;2022-12-29T19:09:48;14.27;;;5.38;;
39740;SDS011;25426;53.478;10.190;2022-12-29T19:12:19;8.88;;;4.18;;
39740;SDS011;25426;53.478;10.190;2022-12-29T19:14:50;8.90;;;4.38;;
39740;SDS011;25426;53.478;10.190;2022-12-29T19:17:21;10.10;;;4.38;;
39740;SDS011;25426;53.478;10.190;2022-12-29T19:19:52;10.40;;;3.90;;
39740;SDS011;25426;53.478;10.190;2022-12-29T19:22:23;9.88;;;4.63;;
39740;SDS011;25426;53.478;10.190;2022-12-29T19:24:54;12.13;;;4.53;;
39740;SDS011;25426;53.478;10.190;2022-12-29T19:27:25;11.68;;;4.22;;
39740;SDS011;25426;53.478;10.190;2022-12-29T19:29:56;9.32;;;4.18;;
39740;SDS011;25426;53.478;10.190;2022-12-29T19:32:27;11.23;;;4.40;;
39740;SDS011;25426;53.478;10.190;2022-12-29T19:34:58;13.07;;;7.38;;
39740;SDS011;25426;53.478;10.190;2022-12-29T19:37:29;13.07;;;7.60;;
39740;SDS011;25426;53.478;10.190;2022-12-29T19:40:00;11.88;;;5.63;;
39740;SDS011;25426;53.478;10.190;2022-12-29T19:42:33;8.57;;;4.63;;
39740;SDS011;25426;53.478;10.190;2022-12-29T19:45:05;13.05;;;5.65;;
39740;SDS011;25426;53.478;10.190;2022-12-29T19:47:37;11.88;;;5.28;;
39740;SDS011;25426;53.478;10.190;2022-12-29T19:50:09;10.82;;;4.25;;
39740;SDS011;25426;53.478;10.190;2022-12-29T19:52:43;8.85;;;3.88;;
39740;SDS011;25426;53.478;10.190;2022-12-29T19:55:15;12.63;;;3.25;;
39740;SDS011;25426;53.478;10.190;2022-12-29T19:57:46;7.47;;;3.38;;
39740;SDS011;25426;53.478;10.190;2022-12-29T20:00:17;5.78;;;3.08;;
39740;SDS011;25426;53.478;10.190;2022-12-29T20:02:48;7.90;;;3.47;;
39740;SDS011;25426;53.478;10.190;2022-12-29T20:05:19;5.15;;;2.85;;
39740;SDS011;25426;53.478;10.190;2022-12-29T20:07:50;6.88;;;2.75;;
39740;SDS011;25426;53.478;10.190;2022-12-29T20:10:21;10.13;;;3.40;;
39740;SDS011;25426;53.478;10.190;2022-12-29T20:12:53;8.20;;;2.90;;
39740;SDS011;25426;53.478;10.190;2022-12-29T20:15:23;5.43;;;2.42;;
39740;SDS011;25426;53.478;10.190;2022-12-29T20:17:54;6.70;;;2.25;;
39740;SDS011;25426;53.478;10.190;2022-12-29T20:20:25;5.43;;;2.53;;
39740;SDS011;25426;53.478;10.190;2022-12-29T20:22:56;9.30;;;2.58;;
39740;SDS011;25426;53.478;10.190;2022-12-29T20:25:28;5.93;;;2.20;;
39740;SDS011;25426;53.478;10.190;2022-12-29T20:27:59;3.17;;;1.38;;
39740;SDS011;25426;53.478;10.190;2022-12-29T20:30:31;2.78;;;1.38;;
39740;SDS011;25426;53.478;10.190;2022-12-29T20:33:02;4.00;;;0.98;;
39740;SDS011;25426;53.478;10.190;2022-12-29T20:35:33;3.88;;;0.90;;
39740;SDS011;25426;53.478;10.190;2022-12-29T20:38:04;2.80;;;0.95;;
39740;SDS011;25426;53.478;10.190;2022-12-29T20:40:35;1.88;;;1.13;;
39740;SDS011;25426;53.478;10.190;2022-12-29T20:43:06;0.98;;;0.80;;
39740;SDS011;25426;53.478;10.190;2022-12-29T20:45:38;2.60;;;1.40;;
39740;SDS011;25426;53.478;10.190;2022-12-29T20:48:09;2.45;;;0.90;;
39740;SDS011;25426;53.478;10.190;2022-12-29T20:50:40;4.05;;;1.10;;
39740;SDS011;25426;53.478;10.190;2022-12-29T20:53:11;1.77;;;1.38;;
39740;SDS011;25426;53.478;10.190;2022-12-29T20:55:42;1.63;;;1.15;;
39740;SDS011;25426;53.478;10.190;2022-12-29T20:58:13;6.82;;;1.52;;
39740;SDS011;25426;53.478;10.190;2022-12-29T21:00:44;3.08;;;1.10;;
